createdAt,value
2017-09-24T00:00:18.027Z,68.13
2017-09-24T00:02:52.919Z,78.33
2017-09-24T00:05:27.564Z,69.03
2017-09-24T00:08:02.062Z,68.00
2017-09-24T00:10:36.823Z,71.10
2017-09-24T00:13:11.691Z,72.80
2017-09-24T00:15:46.431Z,74.93
2017-09-24T00:18:21.148Z,64.27
2017-09-24T00:20:55.974Z,65.37
2017-09-24T00:23:31.811Z,72.37
2017-09-24T00:26:06.313Z,73.37
2017-09-24T00:28:41.055Z,63.93
2017-09-24T00:31:15.567Z,66.77
2017-09-24T00:33:50.423Z,66.83
2017-09-24T00:36:25.251Z,69.77
2017-09-24T00:38:59.980Z,66.63
2017-09-24T00:41:34.389Z,67.47
2017-09-24T00:44:09.315Z,61.13
2017-09-24T00:46:44.000Z,62.97
2017-09-24T00:49:18.787Z,65.90
2017-09-24T00:51:53.775Z,70.87
2017-09-24T00:54:28.871Z,65.87
2017-09-24T00:57:03.584Z,62.20
2017-09-24T00:59:38.282Z,64.90
2017-09-24T01:02:13.259Z,64.10
2017-09-24T01:04:47.991Z,63.67
2017-09-24T01:07:22.622Z,60.07
2017-09-24T01:09:57.244Z,58.07
2017-09-24T01:12:32.443Z,60.27
2017-09-24T01:15:07.028Z,57.50
2017-09-24T01:17:42.037Z,60.23
2017-09-24T01:20:16.612Z,61.70
2017-09-24T01:22:51.323Z,64.73
2017-09-24T01:25:26.431Z,62.47
2017-09-24T01:28:00.811Z,59.90
2017-09-24T01:30:35.580Z,63.93
2017-09-24T01:33:10.241Z,61.03
2017-09-24T01:35:46.009Z,68.23
2017-09-24T01:38:20.699Z,59.27
2017-09-24T01:40:55.286Z,63.13
2017-09-24T01:43:29.907Z,61.83
2017-09-24T01:46:04.739Z,57.07
2017-09-24T01:48:39.495Z,56.47
2017-09-24T01:51:14.143Z,56.10
2017-09-24T01:53:48.924Z,59.47
2017-09-24T01:56:23.791Z,55.10
2017-09-24T01:58:58.404Z,56.67
2017-09-24T02:01:32.708Z,51.03
2017-09-24T02:04:07.952Z,57.37
2017-09-24T02:06:43.451Z,58.43
2017-09-24T02:09:18.343Z,54.77
2017-09-24T02:11:53.066Z,54.83
2017-09-24T02:14:27.752Z,54.40
2017-09-24T02:17:02.611Z,52.63
2017-09-24T02:19:37.656Z,55.90
2017-09-24T02:22:12.474Z,54.30
2017-09-24T02:24:47.107Z,57.13
2017-09-24T02:27:21.817Z,51.40
2017-09-24T02:29:56.391Z,57.17
2017-09-24T02:32:31.987Z,51.80
2017-09-24T02:35:06.696Z,54.17
2017-09-24T02:37:42.201Z,59.37
2017-09-24T02:40:17.775Z,55.90
2017-09-24T02:42:52.383Z,54.93
2017-09-24T02:45:27.050Z,59.27
2017-09-24T02:48:01.945Z,58.20
2017-09-24T02:50:36.643Z,57.23
2017-09-24T02:53:11.339Z,58.00
2017-09-24T02:55:45.946Z,58.57
2017-09-24T02:58:20.721Z,57.10
2017-09-24T03:00:55.356Z,59.23
2017-09-24T03:03:30.964Z,55.00
2017-09-24T03:06:06.583Z,53.27
2017-09-24T03:08:41.089Z,55.40
2017-09-24T03:11:15.803Z,50.37
2017-09-24T03:13:50.447Z,49.37
2017-09-24T03:16:25.205Z,53.80
2017-09-24T03:18:59.884Z,54.73
2017-09-24T03:21:34.808Z,57.23
2017-09-24T03:24:09.749Z,50.43
2017-09-24T03:26:44.263Z,56.40
2017-09-24T03:29:19.127Z,59.87
2017-09-24T03:31:53.745Z,59.40
2017-09-24T03:34:28.599Z,54.87
2017-09-24T03:37:03.323Z,62.33
2017-09-24T03:39:38.159Z,61.20
2017-09-24T03:42:12.560Z,59.90
2017-09-24T03:44:47.268Z,59.33
2017-09-24T03:47:22.015Z,55.50
2017-09-24T03:49:56.652Z,55.97
2017-09-24T03:52:31.366Z,59.43
2017-09-24T03:55:06.031Z,55.63
2017-09-24T03:57:40.589Z,52.13
2017-09-24T04:00:15.447Z,60.47
2017-09-24T04:02:50.397Z,56.83
2017-09-24T04:05:25.138Z,55.60
2017-09-24T04:07:59.929Z,59.87
2017-09-24T04:10:34.369Z,56.80
2017-09-24T04:13:09.203Z,54.73
2017-09-24T04:15:43.907Z,60.00
2017-09-24T04:18:18.742Z,58.97
2017-09-24T04:20:53.644Z,59.77
2017-09-24T04:23:28.573Z,58.13
2017-09-24T04:26:03.261Z,59.07
2017-09-24T04:28:37.978Z,52.87
2017-09-24T04:31:12.503Z,55.10
2017-09-24T04:33:47.013Z,59.50
2017-09-24T04:36:21.707Z,59.87
2017-09-24T04:38:56.412Z,54.27
2017-09-24T04:41:31.105Z,57.27
2017-09-24T04:44:06.035Z,55.70
2017-09-24T04:46:40.804Z,56.63
2017-09-24T04:49:15.451Z,63.30
2017-09-24T04:51:50.155Z,55.00
2017-09-24T04:54:24.875Z,55.50
2017-09-24T04:56:59.347Z,56.23
2017-09-24T04:59:34.157Z,54.63
2017-09-24T05:02:08.795Z,55.33
2017-09-24T05:04:43.694Z,54.47
2017-09-24T05:07:18.469Z,53.47
2017-09-24T05:09:53.206Z,53.77
2017-09-24T05:12:27.932Z,49.80
2017-09-24T05:15:02.722Z,51.13
2017-09-24T05:17:37.965Z,50.63
2017-09-24T05:20:13.087Z,50.03
2017-09-24T05:22:47.886Z,56.73
2017-09-24T05:25:22.519Z,48.10
2017-09-24T05:27:57.242Z,45.87
2017-09-24T05:30:31.932Z,48.77
2017-09-24T05:33:06.827Z,51.10
2017-09-24T05:35:41.621Z,45.93
2017-09-24T05:38:16.270Z,48.37
2017-09-24T05:40:51.068Z,47.37
2017-09-24T05:43:25.779Z,50.00
2017-09-24T05:46:00.693Z,47.63
2017-09-24T05:48:36.310Z,45.57
2017-09-24T05:51:10.871Z,47.07
2017-09-24T05:53:45.663Z,50.47
2017-09-24T05:56:20.373Z,45.57
2017-09-24T05:58:55.175Z,45.20
2017-09-24T06:01:30.067Z,40.73
2017-09-24T06:04:04.835Z,42.43
2017-09-24T06:06:40.116Z,39.33
2017-09-24T06:09:15.861Z,44.90
2017-09-24T06:11:51.636Z,37.30
2017-09-24T06:14:26.431Z,40.43
2017-09-24T06:17:00.906Z,38.30
2017-09-24T06:19:36.425Z,37.33
2017-09-24T06:22:12.167Z,40.90
2017-09-24T06:24:46.873Z,35.37
2017-09-24T06:27:21.193Z,30.73
2017-09-24T06:29:56.242Z,42.03
2017-09-24T06:32:30.811Z,35.50
2017-09-24T06:35:05.194Z,37.03
2017-09-24T06:37:39.823Z,38.50
2017-09-24T06:40:14.724Z,36.93
2017-09-24T06:42:49.449Z,38.43
2017-09-24T06:45:24.586Z,42.20
2017-09-24T06:47:59.403Z,42.53
2017-09-24T06:50:34.516Z,36.83
2017-09-24T06:53:09.721Z,36.40
2017-09-24T06:55:44.941Z,34.27
2017-09-24T06:58:19.554Z,39.57
2017-09-24T07:00:55.036Z,39.47
2017-09-24T07:03:29.828Z,34.20
2017-09-24T07:06:04.571Z,33.17
2017-09-24T07:08:39.231Z,34.43
2017-09-24T07:11:13.843Z,35.90
2017-09-24T07:13:48.512Z,35.17
2017-09-24T07:16:24.095Z,34.67
2017-09-24T07:18:58.824Z,35.57
2017-09-24T07:21:33.579Z,34.27
2017-09-24T07:24:08.080Z,31.73
2017-09-24T07:26:42.854Z,31.57
2017-09-24T07:29:17.559Z,34.90
2017-09-24T07:31:52.252Z,32.67
2017-09-24T07:34:26.829Z,33.43
2017-09-24T07:37:01.893Z,33.27
2017-09-24T07:39:36.270Z,29.67
2017-09-24T07:42:11.087Z,32.20
2017-09-24T07:44:46.216Z,33.17
2017-09-24T07:47:21.894Z,30.70
2017-09-24T07:49:56.960Z,36.53
2017-09-24T07:52:31.488Z,29.77
2017-09-24T07:55:06.094Z,29.10
2017-09-24T07:57:40.738Z,30.00
2017-09-24T08:00:15.379Z,29.47
2017-09-24T08:02:50.538Z,28.50
2017-09-24T08:05:25.664Z,29.23
2017-09-24T08:08:00.748Z,30.07
2017-09-24T08:10:35.468Z,29.47
2017-09-24T08:13:10.080Z,24.57
2017-09-24T08:15:44.914Z,24.10
2017-09-24T08:18:20.091Z,22.73
2017-09-24T08:20:54.643Z,24.80
2017-09-24T08:23:29.868Z,26.00
2017-09-24T08:26:05.064Z,22.30
2017-09-24T08:28:39.800Z,22.50
2017-09-24T08:31:14.424Z,23.40
2017-09-24T08:33:49.270Z,23.03
2017-09-24T08:36:24.179Z,23.33
2017-09-24T08:38:58.824Z,22.90
2017-09-24T08:41:34.007Z,23.40
2017-09-24T08:44:09.624Z,25.13
2017-09-24T08:46:44.355Z,24.30
2017-09-24T08:49:19.151Z,23.20
2017-09-24T08:51:53.904Z,21.63
2017-09-24T08:54:28.983Z,20.10
2017-09-24T08:57:03.897Z,21.50
2017-09-24T08:59:38.743Z,20.70
2017-09-24T09:02:13.464Z,19.33
2017-09-24T09:04:48.598Z,20.00
2017-09-24T09:07:23.324Z,20.70
2017-09-24T09:09:58.111Z,19.33
2017-09-24T09:12:33.248Z,18.80
2017-09-24T09:15:07.892Z,19.10
2017-09-24T09:17:42.688Z,16.20
2017-09-24T09:20:17.558Z,15.17
2017-09-24T09:22:52.311Z,14.13
2017-09-24T09:25:27.254Z,13.83
2017-09-24T09:28:02.075Z,12.83
2017-09-24T09:30:37.233Z,14.40
2017-09-24T09:33:20.673Z,11.73
2017-09-24T09:35:55.595Z,10.73
2017-09-24T09:38:30.356Z,11.10
2017-09-24T09:41:05.016Z,10.33
2017-09-24T09:43:45.171Z,9.00
2017-09-24T09:46:30.531Z,7.47
2017-09-24T09:49:05.216Z,8.37
2017-09-24T09:51:40.056Z,7.73
2017-09-24T09:54:15.016Z,7.70
2017-09-24T09:56:49.824Z,7.90
2017-09-24T09:59:24.280Z,8.27
2017-09-24T10:01:59.007Z,8.93
2017-09-24T10:04:33.636Z,7.43
2017-09-24T10:07:20.944Z,8.30
2017-09-24T10:10:07.208Z,6.73
2017-09-24T10:12:42.819Z,8.30
2017-09-24T10:15:17.725Z,8.50
2017-09-24T10:17:52.472Z,27.53
2017-09-24T10:20:27.096Z,9.67
2017-09-24T10:23:01.629Z,39.10
2017-09-24T10:25:36.659Z,12.60
2017-09-24T10:28:22.763Z,9.90
2017-09-24T10:30:58.119Z,10.47
2017-09-24T10:33:32.618Z,8.90
2017-09-24T10:36:07.602Z,7.57
2017-09-24T10:38:42.572Z,6.63
2017-09-24T10:41:17.422Z,6.20
2017-09-24T10:43:52.297Z,5.50
2017-09-24T10:46:27.491Z,5.60
2017-09-24T10:49:02.606Z,4.70
2017-09-24T10:51:37.205Z,4.10
2017-09-24T10:54:12.339Z,4.40
2017-09-24T10:56:46.804Z,4.57
2017-09-24T10:59:21.336Z,4.47
2017-09-24T11:01:56.146Z,6.30
2017-09-24T11:04:31.084Z,5.57
2017-09-24T11:07:05.795Z,5.43
2017-09-24T11:09:40.695Z,5.00
2017-09-24T11:12:15.255Z,6.93
2017-09-24T11:14:50.002Z,5.20
2017-09-24T11:17:24.746Z,5.27
2017-09-24T11:19:59.684Z,5.20
2017-09-24T11:22:34.644Z,6.23
2017-09-24T11:25:09.248Z,5.47
2017-09-24T11:27:44.972Z,5.50
2017-09-24T11:30:19.825Z,5.57
2017-09-24T11:32:54.524Z,4.90
2017-09-24T11:35:29.266Z,4.53
2017-09-24T11:38:03.884Z,4.67
2017-09-24T11:40:38.736Z,5.80
2017-09-24T11:43:13.696Z,7.50
2017-09-24T11:45:48.720Z,4.93
2017-09-24T11:48:23.552Z,5.07
2017-09-24T11:50:58.540Z,7.17
2017-09-24T11:53:33.194Z,7.97
2017-09-24T11:56:08.112Z,8.60
2017-09-24T11:58:42.707Z,8.80
2017-09-24T12:01:17.463Z,9.93
2017-09-24T12:03:51.936Z,10.03
2017-09-24T12:06:26.844Z,6.83
2017-09-24T12:09:02.552Z,8.87
2017-09-24T12:11:37.387Z,11.10
2017-09-24T12:14:12.132Z,8.43
2017-09-24T12:16:46.817Z,11.10
2017-09-24T12:19:21.692Z,9.10
2017-09-24T12:21:56.424Z,10.33
2017-09-24T12:24:31.135Z,10.03
2017-09-24T12:27:05.890Z,9.40
2017-09-24T12:29:40.778Z,11.73
2017-09-24T12:32:15.507Z,8.80
2017-09-24T12:34:50.139Z,10.77
2017-09-24T12:37:24.767Z,9.07
2017-09-24T12:39:59.499Z,11.90
2017-09-24T12:42:34.294Z,9.40
2017-09-24T12:45:09.004Z,10.73
2017-09-24T12:47:43.629Z,10.30
2017-09-24T12:50:18.308Z,9.53
2017-09-24T12:52:53.124Z,11.17
2017-09-24T12:55:28.174Z,11.03
2017-09-24T12:58:02.572Z,8.87
2017-09-24T13:00:37.694Z,15.53
2017-09-24T13:03:12.466Z,10.30
2017-09-24T13:05:47.335Z,11.07
2017-09-24T13:08:21.816Z,11.40
2017-09-24T13:10:56.367Z,11.73
2017-09-24T13:13:31.188Z,12.23
2017-09-24T13:16:06.131Z,13.70
2017-09-24T13:18:40.831Z,13.13
2017-09-24T13:21:15.583Z,12.30
2017-09-24T13:23:50.429Z,12.17
2017-09-24T13:26:25.324Z,11.70
2017-09-24T13:29:00.190Z,12.17
2017-09-24T13:31:35.015Z,23.70
2017-09-24T13:34:09.580Z,12.90
2017-09-24T13:36:44.435Z,31.80
2017-09-24T13:39:19.216Z,11.07
2017-09-24T13:41:56.047Z,14.53
2017-09-24T13:44:30.412Z,13.90
2017-09-24T13:47:05.252Z,11.27
2017-09-24T13:49:40.060Z,14.00
2017-09-24T13:52:14.585Z,13.50
2017-09-24T13:54:49.373Z,14.60
2017-09-24T13:57:24.147Z,13.87
2017-09-24T13:59:59.413Z,13.93
2017-09-24T14:02:34.217Z,18.50
2017-09-24T14:05:08.975Z,19.50
2017-09-24T14:07:43.909Z,14.00
2017-09-24T14:10:18.627Z,13.33
2017-09-24T14:12:53.460Z,15.17
2017-09-24T14:15:28.435Z,12.07
2017-09-24T14:18:03.315Z,13.77
2017-09-24T14:20:37.740Z,15.67
2017-09-24T14:23:12.600Z,12.80
2017-09-24T14:25:47.400Z,12.77
2017-09-24T14:28:21.863Z,13.17
2017-09-24T14:30:56.887Z,13.40
2017-09-24T14:33:31.179Z,13.73
2017-09-24T14:36:06.544Z,13.90
2017-09-24T14:38:41.200Z,13.20
2017-09-24T14:41:16.028Z,15.43
2017-09-24T14:43:50.827Z,13.13
2017-09-24T14:46:25.780Z,12.57
2017-09-24T14:49:00.464Z,13.23
2017-09-24T14:51:35.412Z,13.50
2017-09-24T14:54:10.244Z,14.97
2017-09-24T14:56:45.376Z,14.40
2017-09-24T14:59:20.096Z,13.40
2017-09-24T15:01:55.022Z,16.00
2017-09-24T15:04:29.786Z,13.47
2017-09-24T15:07:05.267Z,17.37
2017-09-24T15:09:39.658Z,13.37
2017-09-24T15:12:14.227Z,17.97
2017-09-24T15:14:48.854Z,17.50
2017-09-24T15:17:23.424Z,19.70
2017-09-24T15:19:58.086Z,15.73
2017-09-24T15:22:33.129Z,17.20
2017-09-24T15:25:07.845Z,17.33
2017-09-24T15:27:43.049Z,15.77
2017-09-24T15:30:17.712Z,27.17
2017-09-24T15:32:52.431Z,19.87
2017-09-24T15:35:27.251Z,17.63
2017-09-24T15:38:02.067Z,18.10
2017-09-24T15:40:37.206Z,18.17
2017-09-24T15:43:12.183Z,18.40
2017-09-24T15:45:46.815Z,21.63
2017-09-24T15:48:21.688Z,16.60
2017-09-24T15:50:56.556Z,15.67
2017-09-24T15:53:31.835Z,17.67
2017-09-24T15:56:06.395Z,17.33
2017-09-24T15:58:41.219Z,18.07
2017-09-24T16:01:15.994Z,16.93
2017-09-24T16:03:50.814Z,18.57
2017-09-24T16:06:25.587Z,19.10
2017-09-24T16:09:00.604Z,19.60
2017-09-24T16:11:35.358Z,16.83
2017-09-24T16:14:10.027Z,15.60
2017-09-24T16:16:44.782Z,17.60
2017-09-24T16:19:19.535Z,18.70
2017-09-24T16:21:54.255Z,18.70
2017-09-24T16:24:29.154Z,17.23
2017-09-24T16:27:03.896Z,19.27
2017-09-24T16:29:38.630Z,18.93
2017-09-24T16:32:13.422Z,18.97
2017-09-24T16:34:48.243Z,22.53
2017-09-24T16:37:23.078Z,19.47
2017-09-24T16:39:57.860Z,20.60
2017-09-24T16:42:33.068Z,20.53
2017-09-24T16:45:08.168Z,21.27
2017-09-24T16:47:43.077Z,19.03
2017-09-24T16:50:17.934Z,18.73
2017-09-24T16:52:52.809Z,19.60
2017-09-24T16:55:27.564Z,18.90
2017-09-24T16:58:02.841Z,19.57
2017-09-24T17:00:37.488Z,15.63
2017-09-24T17:03:12.159Z,20.70
2017-09-24T17:05:46.868Z,25.57
2017-09-24T17:08:21.917Z,20.63
2017-09-24T17:10:59.098Z,22.33
2017-09-24T17:13:34.231Z,26.37
2017-09-24T17:16:08.980Z,25.00
2017-09-24T17:18:43.803Z,25.60
2017-09-24T17:21:18.468Z,24.07
2017-09-24T17:23:53.557Z,24.00
2017-09-24T17:26:28.326Z,27.07
2017-09-24T17:29:03.053Z,24.70
2017-09-24T17:31:37.644Z,25.03
2017-09-24T17:34:12.367Z,26.50
2017-09-24T17:36:47.639Z,32.17
2017-09-24T17:39:23.276Z,28.60
2017-09-24T17:41:58.525Z,26.67
2017-09-24T17:44:33.341Z,26.17
2017-09-24T17:47:07.975Z,31.30
2017-09-24T17:49:42.730Z,25.00
2017-09-24T17:52:17.943Z,25.37
2017-09-24T17:54:53.115Z,28.37
2017-09-24T17:57:27.956Z,30.50
2017-09-24T18:00:02.939Z,31.17
2017-09-24T18:02:38.550Z,27.83
2017-09-24T18:05:13.255Z,27.20
2017-09-24T18:07:48.204Z,26.60
2017-09-24T18:10:22.985Z,26.60
2017-09-24T18:12:57.869Z,29.80
2017-09-24T18:15:32.718Z,29.70
2017-09-24T18:18:07.428Z,26.47
2017-09-24T18:20:42.109Z,28.20
2017-09-24T18:23:16.848Z,25.73
2017-09-24T18:25:51.760Z,30.60
2017-09-24T18:28:26.574Z,29.17
2017-09-24T18:31:01.216Z,28.10
2017-09-24T18:33:36.321Z,25.80
2017-09-24T18:36:11.072Z,25.60
2017-09-24T18:38:45.896Z,26.13
2017-09-24T18:41:23.996Z,27.63
2017-09-24T18:44:00.573Z,26.70
2017-09-24T18:46:35.707Z,28.60
2017-09-24T18:49:10.340Z,31.47
2017-09-24T18:51:48.814Z,28.43
2017-09-24T18:54:24.370Z,27.70
2017-09-24T18:56:58.886Z,29.20
2017-09-24T18:59:33.972Z,25.70
2017-09-24T19:02:08.628Z,22.83
2017-09-24T19:04:43.350Z,26.20
2017-09-24T19:07:18.450Z,27.13
2017-09-24T19:09:53.371Z,28.17
2017-09-24T19:12:28.186Z,25.07
2017-09-24T19:15:03.055Z,28.30
2017-09-24T19:17:37.894Z,23.87
2017-09-24T19:20:12.320Z,25.23
2017-09-24T19:22:47.800Z,24.50
2017-09-24T19:25:23.194Z,24.40
2017-09-24T19:27:58.019Z,24.60
2017-09-24T19:30:33.808Z,29.43
2017-09-24T19:33:08.476Z,26.60
2017-09-24T19:35:45.972Z,30.17
2017-09-24T19:38:21.272Z,24.20
2017-09-24T19:40:56.291Z,23.33
2017-09-24T19:43:30.876Z,27.70
2017-09-24T19:46:06.589Z,24.00
2017-09-24T19:48:41.004Z,28.33
2017-09-24T19:51:15.874Z,25.07
2017-09-24T19:53:50.796Z,25.63
2017-09-24T19:56:25.656Z,29.27
2017-09-24T19:59:00.602Z,27.60
2017-09-24T20:01:35.300Z,30.00
2017-09-24T20:04:10.024Z,29.30
2017-09-24T20:06:45.080Z,26.93
2017-09-24T20:09:19.912Z,28.80
2017-09-24T20:11:55.008Z,25.07
2017-09-24T20:14:29.882Z,30.87
2017-09-24T20:17:04.512Z,28.93
2017-09-24T20:19:39.473Z,24.43
2017-09-24T20:22:14.270Z,28.50
2017-09-24T20:24:49.195Z,31.07
2017-09-24T20:27:24.260Z,26.20
2017-09-24T20:29:59.098Z,23.87
2017-09-24T20:32:37.408Z,28.90
2017-09-24T20:35:11.817Z,31.60
2017-09-24T20:37:48.083Z,28.13
2017-09-24T20:40:24.297Z,27.23
2017-09-24T20:42:59.707Z,26.03
2017-09-24T20:45:34.460Z,28.03
2017-09-24T20:48:09.028Z,26.40
2017-09-24T20:50:45.323Z,29.93
2017-09-24T20:53:20.514Z,32.67
2017-09-24T20:55:56.366Z,27.87
2017-09-24T20:58:34.291Z,26.33
2017-09-24T21:01:09.240Z,30.67
2017-09-24T21:03:44.468Z,31.40
2017-09-24T21:06:18.960Z,29.33
2017-09-24T21:08:53.591Z,31.33
2017-09-24T21:11:31.216Z,31.90
2017-09-24T21:14:08.921Z,31.43
2017-09-24T21:16:47.100Z,27.00
2017-09-24T21:19:22.156Z,29.00
2017-09-24T21:21:57.008Z,30.20
2017-09-24T21:24:32.011Z,33.00
2017-09-24T21:27:07.033Z,30.20
2017-09-24T21:29:42.186Z,34.03
2017-09-24T21:32:17.450Z,30.20
2017-09-24T21:34:52.911Z,35.80
2017-09-24T21:37:27.841Z,31.77
2017-09-24T21:40:03.059Z,34.07
2017-09-24T21:42:37.757Z,29.50
2017-09-24T21:45:12.360Z,27.87
2017-09-24T21:47:47.164Z,30.20
2017-09-24T21:50:21.941Z,31.60
2017-09-24T21:52:56.570Z,35.47
2017-09-24T21:55:31.959Z,33.73
2017-09-24T21:58:06.699Z,39.10
2017-09-24T22:00:41.680Z,28.37
2017-09-24T22:03:16.402Z,31.23
2017-09-24T22:05:51.144Z,33.70
2017-09-24T22:08:26.298Z,31.10
2017-09-24T22:11:01.952Z,32.10
2017-09-24T22:13:36.700Z,35.60
2017-09-24T22:16:11.810Z,33.43
2017-09-24T22:18:46.736Z,32.80
2017-09-24T22:21:21.540Z,33.80
2017-09-24T22:23:56.502Z,39.40
2017-09-24T22:26:35.644Z,32.27
2017-09-24T22:29:10.910Z,32.00
2017-09-24T22:31:46.540Z,34.03
2017-09-24T22:34:21.805Z,32.23
2017-09-24T22:36:56.712Z,33.57
2017-09-24T22:39:31.846Z,31.20
2017-09-24T22:42:06.777Z,31.90
2017-09-24T22:44:41.710Z,34.83
2017-09-24T22:47:16.799Z,33.90
2017-09-24T22:49:51.772Z,33.97
2017-09-24T22:52:26.902Z,35.90
2017-09-24T22:55:01.775Z,29.17
2017-09-24T22:57:36.503Z,33.03
2017-09-24T23:00:11.375Z,34.63
2017-09-24T23:02:46.374Z,33.93
2017-09-24T23:05:20.892Z,34.33
2017-09-24T23:07:55.656Z,35.93
2017-09-24T23:10:34.538Z,37.50
2017-09-24T23:13:11.405Z,37.20
2017-09-24T23:15:45.696Z,34.27
2017-09-24T23:18:22.246Z,33.10
2017-09-24T23:20:58.516Z,34.40
2017-09-24T23:23:33.472Z,34.90
2017-09-24T23:26:08.532Z,32.40
2017-09-24T23:28:44.563Z,38.30
2017-09-24T23:31:20.759Z,36.00
2017-09-24T23:33:55.637Z,39.67
2017-09-24T23:36:32.255Z,45.70
2017-09-24T23:39:07.286Z,51.70
2017-09-24T23:41:42.157Z,44.77
2017-09-24T23:44:17.228Z,53.90
2017-09-24T23:46:52.734Z,43.20
2017-09-24T23:49:29.433Z,58.97
2017-09-24T23:52:08.839Z,78.83
2017-09-24T23:54:44.045Z,45.30
2017-09-24T23:57:18.984Z,48.50
2017-09-24T23:59:53.986Z,47.90
